sensor_id;sensor_type;location;lat;lon;timestamp;pressure;altitude;pressure_sealevel;temperature;humidity
23363;BME280;11853;48.080;11.960;2022-08-19T00:01:46;94368.50;;;20.90;98.76
23363;BME280;11853;48.080;11.960;2022-08-19T00:04:14;94370.69;;;20.81;99.42
23363;BME280;11853;48.080;11.960;2022-08-19T00:06:51;94372.66;;;20.74;100.00
23363;BME280;11853;48.080;11.960;2022-08-19T00:09:18;94364.09;;;20.77;99.67
23363;BME280;11853;48.080;11.960;2022-08-19T00:11:50;94349.91;;;20.70;100.00
23363;BME280;11853;48.080;11.960;2022-08-19T00:14:17;94343.53;;;20.64;100.00
23363;BME280;11853;48.080;11.960;2022-08-19T00:16:45;94344.00;;;20.61;100.00
23363;BME280;11853;48.080;11.960;2022-08-19T00:19:11;94356.06;;;20.59;100.00
23363;BME280;11853;48.080;11.960;2022-08-19T00:21:37;94356.88;;;20.59;100.00
23363;BME280;11853;48.080;11.960;2022-08-19T00:24:09;94345.47;;;20.57;100.00
23363;BME280;11853;48.080;11.960;2022-08-19T00:26:35;94350.06;;;20.57;100.00
23363;BME280;11853;48.080;11.960;2022-08-19T00:29:10;94337.47;;;20.51;100.00
23363;BME280;11853;48.080;11.960;2022-08-19T00:31:36;94343.03;;;20.56;100.00
23363;BME280;11853;48.080;11.960;2022-08-19T00:34:04;94350.50;;;20.54;100.00
23363;BME280;11853;48.080;11.960;2022-08-19T00:36:30;94350.50;;;20.54;100.00
23363;BME280;11853;48.080;11.960;2022-08-19T00:38:57;94344.44;;;20.58;100.00
23363;BME280;11853;48.080;11.960;2022-08-19T00:41:24;94331.19;;;20.57;100.00
23363;BME280;11853;48.080;11.960;2022-08-19T00:46:29;94304.75;;;20.47;100.00
23363;BME280;11853;48.080;11.960;2022-08-19T00:48:56;94297.94;;;20.44;100.00
23363;BME280;11853;48.080;11.960;2022-08-19T00:51:25;94296.88;;;20.45;100.00
23363;BME280;11853;48.080;11.960;2022-08-19T00:53:53;94312.59;;;20.48;100.00
23363;BME280;11853;48.080;11.960;2022-08-19T00:56:22;94301.34;;;20.52;100.00
23363;BME280;11853;48.080;11.960;2022-08-19T00:58:49;94307.16;;;20.55;100.00
23363;BME280;11853;48.080;11.960;2022-08-19T01:01:20;94303.06;;;20.53;100.00
23363;BME280;11853;48.080;11.960;2022-08-19T01:03:45;94318.38;;;20.52;100.00
23363;BME280;11853;48.080;11.960;2022-08-19T01:06:11;94319.28;;;20.46;100.00
23363;BME280;11853;48.080;11.960;2022-08-19T01:08:36;94291.88;;;20.49;100.00
23363;BME280;11853;48.080;11.960;2022-08-19T01:11:02;94283.13;;;20.54;100.00
23363;BME280;11853;48.080;11.960;2022-08-19T01:13:30;94289.41;;;20.47;100.00
23363;BME280;11853;48.080;11.960;2022-08-19T01:16:05;94295.03;;;20.46;100.00
23363;BME280;11853;48.080;11.960;2022-08-19T01:18:32;94310.97;;;20.47;100.00
23363;BME280;11853;48.080;11.960;2022-08-19T01:21:06;94319.03;;;20.47;100.00
23363;BME280;11853;48.080;11.960;2022-08-19T01:23:33;94323.97;;;20.51;100.00
23363;BME280;11853;48.080;11.960;2022-08-19T01:26:11;94332.06;;;20.51;100.00
23363;BME280;11853;48.080;11.960;2022-08-19T01:28:37;94336.84;;;20.48;100.00
23363;BME280;11853;48.080;11.960;2022-08-19T01:31:14;94357.97;;;20.52;100.00
23363;BME280;11853;48.080;11.960;2022-08-19T01:33:40;94364.19;;;20.52;100.00
23363;BME280;11853;48.080;11.960;2022-08-19T01:36:10;94374.97;;;20.52;100.00
23363;BME280;11853;48.080;11.960;2022-08-19T01:38:40;94362.97;;;20.55;100.00
23363;BME280;11853;48.080;11.960;2022-08-19T01:41:07;94350.88;;;20.57;100.00
23363;BME280;11853;48.080;11.960;2022-08-19T01:43:33;94359.81;;;20.58;100.00
23363;BME280;11853;48.080;11.960;2022-08-19T01:46:01;94350.31;;;20.55;100.00
23363;BME280;11853;48.080;11.960;2022-08-19T01:48:33;94344.09;;;20.55;100.00
23363;BME280;11853;48.080;11.960;2022-08-19T01:50:59;94344.47;;;20.52;100.00
23363;BME280;11853;48.080;11.960;2022-08-19T01:53:25;94337.47;;;20.51;100.00
23363;BME280;11853;48.080;11.960;2022-08-19T01:55:50;94339.09;;;20.52;100.00
23363;BME280;11853;48.080;11.960;2022-08-19T01:58:19;94342.84;;;20.51;100.00
23363;BME280;11853;48.080;11.960;2022-08-19T02:00:46;94343.75;;;20.44;100.00
23363;BME280;11853;48.080;11.960;2022-08-19T02:03:12;94356.41;;;20.44;100.00
23363;BME280;11853;48.080;11.960;2022-08-19T02:05:42;94359.94;;;20.44;100.00
23363;BME280;11853;48.080;11.960;2022-08-19T02:08:08;94362.41;;;20.46;100.00
23363;BME280;11853;48.080;11.960;2022-08-19T02:10:41;94357.44;;;20.43;100.00
23363;BME280;11853;48.080;11.960;2022-08-19T02:13:08;94368.63;;;20.46;100.00
23363;BME280;11853;48.080;11.960;2022-08-19T02:15:34;94375.28;;;20.44;100.00
23363;BME280;11853;48.080;11.960;2022-08-19T02:18:03;94366.13;;;20.45;100.00
23363;BME280;11853;48.080;11.960;2022-08-19T02:20:29;94364.50;;;20.44;100.00
23363;BME280;11853;48.080;11.960;2022-08-19T02:22:55;94370.09;;;20.42;100.00
23363;BME280;11853;48.080;11.960;2022-08-19T02:25:21;94370.72;;;20.44;100.00
23363;BME280;11853;48.080;11.960;2022-08-19T02:27:46;94371.16;;;20.41;100.00
23363;BME280;11853;48.080;11.960;2022-08-19T02:30:16;94361.56;;;20.45;100.00
23363;BME280;11853;48.080;11.960;2022-08-19T02:32:42;94352.75;;;20.38;100.00
23363;BME280;11853;48.080;11.960;2022-08-19T02:35:08;94351.47;;;20.41;100.00
23363;BME280;11853;48.080;11.960;2022-08-19T02:37:34;94349.00;;;20.39;100.00
23363;BME280;11853;48.080;11.960;2022-08-19T02:40:18;94328.03;;;20.41;100.00
23363;BME280;11853;48.080;11.960;2022-08-19T02:42:44;94310.66;;;20.37;100.00
23363;BME280;11853;48.080;11.960;2022-08-19T02:45:12;94303.88;;;20.35;100.00
23363;BME280;11853;48.080;11.960;2022-08-19T02:47:38;94306.50;;;20.23;100.00
23363;BME280;11853;48.080;11.960;2022-08-19T02:50:05;94314.81;;;20.21;100.00
23363;BME280;11853;48.080;11.960;2022-08-19T02:52:33;94318.13;;;20.23;100.00
23363;BME280;11853;48.080;11.960;2022-08-19T02:54:59;94319.16;;;20.22;100.00
23363;BME280;11853;48.080;11.960;2022-08-19T02:57:25;94321.63;;;20.24;100.00
23363;BME280;11853;48.080;11.960;2022-08-19T02:59:52;94324.69;;;20.28;100.00
23363;BME280;11853;48.080;11.960;2022-08-19T03:02:18;94329.47;;;20.25;100.00
23363;BME280;11853;48.080;11.960;2022-08-19T03:04:43;94332.56;;;20.29;100.00
23363;BME280;11853;48.080;11.960;2022-08-19T03:07:09;94336.44;;;20.33;100.00
23363;BME280;11853;48.080;11.960;2022-08-19T03:09:39;94330.84;;;20.35;100.00
23363;BME280;11853;48.080;11.960;2022-08-19T03:12:05;94331.19;;;20.38;100.00
23363;BME280;11853;48.080;11.960;2022-08-19T03:14:33;94331.41;;;20.37;100.00
23363;BME280;11853;48.080;11.960;2022-08-19T03:17:02;94334.50;;;20.40;100.00
23363;BME280;11853;48.080;11.960;2022-08-19T03:19:29;94337.19;;;20.40;100.00
23363;BME280;11853;48.080;11.960;2022-08-19T03:21:55;94345.56;;;20.32;100.00
23363;BME280;11853;48.080;11.960;2022-08-19T03:24:21;94343.34;;;20.29;100.00
23363;BME280;11853;48.080;11.960;2022-08-19T03:26:49;94350.97;;;20.32;100.00
23363;BME280;11853;48.080;11.960;2022-08-19T03:29:18;94341.22;;;20.31;100.00
23363;BME280;11853;48.080;11.960;2022-08-19T03:31:45;94345.56;;;20.32;100.00
23363;BME280;11853;48.080;11.960;2022-08-19T03:34:16;94359.63;;;20.34;100.00
23363;BME280;11853;48.080;11.960;2022-08-19T03:36:44;94362.56;;;20.33;100.00
23363;BME280;11853;48.080;11.960;2022-08-19T03:39:10;94368.91;;;20.38;100.00
23363;BME280;11853;48.080;11.960;2022-08-19T03:41:41;94365.88;;;20.35;100.00
23363;BME280;11853;48.080;11.960;2022-08-19T03:44:07;94366.06;;;20.33;100.00
23363;BME280;11853;48.080;11.960;2022-08-19T03:46:34;94350.97;;;20.32;100.00
23363;BME280;11853;48.080;11.960;2022-08-19T03:49:02;94356.34;;;20.32;100.00
23363;BME280;11853;48.080;11.960;2022-08-19T03:51:37;94352.22;;;20.30;100.00
23363;BME280;11853;48.080;11.960;2022-08-19T03:54:06;94367.59;;;20.29;100.00
23363;BME280;11853;48.080;11.960;2022-08-19T03:56:41;94359.09;;;20.25;100.00
23363;BME280;11853;48.080;11.960;2022-08-19T03:59:11;94358.34;;;20.37;100.00
23363;BME280;11853;48.080;11.960;2022-08-19T04:01:39;94360.47;;;20.35;100.00
23363;BME280;11853;48.080;11.960;2022-08-19T04:04:11;94369.53;;;20.40;100.00
23363;BME280;11853;48.080;11.960;2022-08-19T04:06:37;94364.25;;;20.45;100.00
23363;BME280;11853;48.080;11.960;2022-08-19T04:09:22;94361.34;;;20.47;100.00
23363;BME280;11853;48.080;11.960;2022-08-19T04:11:52;94353.72;;;20.44;100.00
23363;BME280;11853;48.080;11.960;2022-08-19T04:14:21;94345.69;;;20.37;100.00
23363;BME280;11853;48.080;11.960;2022-08-19T04:16:48;94357.53;;;20.36;100.00
23363;BME280;11853;48.080;11.960;2022-08-19T04:19:15;94370.09;;;20.42;100.00
23363;BME280;11853;48.080;11.960;2022-08-19T04:21:43;94374.22;;;20.45;100.00
23363;BME280;11853;48.080;11.960;2022-08-19T04:24:09;94371.31;;;20.46;100.00
23363;BME280;11853;48.080;11.960;2022-08-19T04:26:36;94373.78;;;20.48;100.00
23363;BME280;11853;48.080;11.960;2022-08-19T04:29:09;94383.13;;;20.45;100.00
23363;BME280;11853;48.080;11.960;2022-08-19T04:31:34;94384.41;;;20.43;99.55
23363;BME280;11853;48.080;11.960;2022-08-19T04:34:05;94385.25;;;20.43;99.85
23363;BME280;11853;48.080;11.960;2022-08-19T04:36:34;94382.16;;;20.40;100.00
23363;BME280;11853;48.080;11.960;2022-08-19T04:39:06;94383.16;;;20.27;100.00
23363;BME280;11853;48.080;11.960;2022-08-19T04:41:32;94382.25;;;20.33;100.00
23363;BME280;11853;48.080;11.960;2022-08-19T04:44:18;94384.84;;;20.40;100.00
23363;BME280;11853;48.080;11.960;2022-08-19T04:46:45;94388.38;;;20.40;100.00
23363;BME280;11853;48.080;11.960;2022-08-19T04:49:14;94383.56;;;20.42;100.00
23363;BME280;11853;48.080;11.960;2022-08-19T04:51:44;94385.69;;;20.40;100.00
23363;BME280;11853;48.080;11.960;2022-08-19T04:54:10;94397.97;;;20.36;100.00
23363;BME280;11853;48.080;11.960;2022-08-19T04:56:36;94404.84;;;20.32;100.00
23363;BME280;11853;48.080;11.960;2022-08-19T04:59:02;94406.94;;;20.30;100.00
23363;BME280;11853;48.080;11.960;2022-08-19T05:01:32;94403.19;;;20.31;100.00
23363;BME280;11853;48.080;11.960;2022-08-19T05:04:00;94402.28;;;20.37;100.00
23363;BME280;11853;48.080;11.960;2022-08-19T05:06:27;94412.84;;;20.20;100.00
23363;BME280;11853;48.080;11.960;2022-08-19T05:08:54;94405.75;;;20.26;100.00
23363;BME280;11853;48.080;11.960;2022-08-19T05:11:32;94399.31;;;20.27;100.00
23363;BME280;11853;48.080;11.960;2022-08-19T05:13:58;94410.69;;;20.29;100.00
23363;BME280;11853;48.080;11.960;2022-08-19T05:16:25;94413.59;;;20.28;100.00
23363;BME280;11853;48.080;11.960;2022-08-19T05:18:51;94401.91;;;20.34;100.00
23363;BME280;11853;48.080;11.960;2022-08-19T05:21:35;94407.31;;;20.34;100.00
23363;BME280;11853;48.080;11.960;2022-08-19T05:24:22;94397.78;;;20.31;100.00
23363;BME280;11853;48.080;11.960;2022-08-19T05:26:51;94402.38;;;20.31;100.00
23363;BME280;11853;48.080;11.960;2022-08-19T05:29:20;94402.53;;;20.36;100.00
23363;BME280;11853;48.080;11.960;2022-08-19T05:31:48;94401.63;;;20.23;100.00
23363;BME280;11853;48.080;11.960;2022-08-19T05:34:22;94389.81;;;20.24;100.00
23363;BME280;11853;48.080;11.960;2022-08-19T05:36:55;94391.97;;;20.34;100.00
23363;BME280;11853;48.080;11.960;2022-08-19T05:39:22;94394.19;;;20.37;100.00
23363;BME280;11853;48.080;11.960;2022-08-19T05:41:53;94394.00;;;20.39;100.00
23363;BME280;11853;48.080;11.960;2022-08-19T05:44:20;94393.19;;;20.38;100.00
23363;BME280;11853;48.080;11.960;2022-08-19T05:46:47;94388.81;;;20.37;100.00
23363;BME280;11853;48.080;11.960;2022-08-19T05:49:15;94393.00;;;20.33;100.00
23363;BME280;11853;48.080;11.960;2022-08-19T05:51:42;94384.47;;;20.36;100.00
23363;BME280;11853;48.080;11.960;2022-08-19T05:54:08;94384.47;;;20.36;100.00
23363;BME280;11853;48.080;11.960;2022-08-19T05:56:35;94374.97;;;20.34;100.00
23363;BME280;11853;48.080;11.960;2022-08-19T05:59:05;94379.09;;;20.36;100.00
23363;BME280;11853;48.080;11.960;2022-08-19T06:01:37;94385.75;;;20.34;100.00
23363;BME280;11853;48.080;11.960;2022-08-19T06:04:04;94397.34;;;20.34;100.00
23363;BME280;11853;48.080;11.960;2022-08-19T06:06:30;94405.59;;;20.39;100.00
23363;BME280;11853;48.080;11.960;2022-08-19T06:08:55;94400.66;;;20.36;100.00
23363;BME280;11853;48.080;11.960;2022-08-19T06:11:35;94403.59;;;20.35;100.00
23363;BME280;11853;48.080;11.960;2022-08-19T06:14:07;94404.41;;;20.35;100.00
23363;BME280;11853;48.080;11.960;2022-08-19T06:16:37;94399.00;;;20.35;100.00
23363;BME280;11853;48.080;11.960;2022-08-19T06:19:07;94400.19;;;20.39;100.00
23363;BME280;11853;48.080;11.960;2022-08-19T06:21:34;94396.91;;;20.37;100.00
23363;BME280;11853;48.080;11.960;2022-08-19T06:24:08;94396.91;;;20.37;100.00
23363;BME280;11853;48.080;11.960;2022-08-19T06:26:36;94393.63;;;20.35;100.00
23363;BME280;11853;48.080;11.960;2022-08-19T06:29:04;94389.59;;;20.26;100.00
23363;BME280;11853;48.080;11.960;2022-08-19T06:31:32;94383.97;;;20.28;100.00
23363;BME280;11853;48.080;11.960;2022-08-19T06:34:00;94390.78;;;20.30;100.00
23363;BME280;11853;48.080;11.960;2022-08-19T06:36:31;94388.69;;;20.32;100.00
23363;BME280;11853;48.080;11.960;2022-08-19T06:39:06;94398.41;;;20.33;100.00
23363;BME280;11853;48.080;11.960;2022-08-19T06:41:38;94400.72;;;20.30;100.00
23363;BME280;11853;48.080;11.960;2022-08-19T06:44:04;94398.66;;;20.32;100.00
23363;BME280;11853;48.080;11.960;2022-08-19T06:46:30;94396.09;;;20.37;100.00
23363;BME280;11853;48.080;11.960;2022-08-19T06:48:56;94392.34;;;20.38;100.00
23363;BME280;11853;48.080;11.960;2022-08-19T06:51:23;94394.34;;;20.42;100.00
23363;BME280;11853;48.080;11.960;2022-08-19T06:53:53;94393.91;;;20.45;100.00
23363;BME280;11853;48.080;11.960;2022-08-19T06:56:23;94398.03;;;20.48;100.00
23363;BME280;11853;48.080;11.960;2022-08-19T06:58:50;94401.34;;;20.50;100.00
23363;BME280;11853;48.080;11.960;2022-08-19T07:01:19;94397.81;;;20.50;100.00
23363;BME280;11853;48.080;11.960;2022-08-19T07:03:46;94389.31;;;20.53;100.00
23363;BME280;11853;48.080;11.960;2022-08-19T07:06:15;94383.22;;;20.57;100.00
23363;BME280;11853;48.080;11.960;2022-08-19T07:08:46;94375.53;;;20.61;100.00
23363;BME280;11853;48.080;11.960;2022-08-19T07:11:17;94373.56;;;20.68;100.00
23363;BME280;11853;48.080;11.960;2022-08-19T07:13:44;94376.63;;;20.72;100.00
23363;BME280;11853;48.080;11.960;2022-08-19T07:16:16;94365.41;;;20.75;100.00
23363;BME280;11853;48.080;11.960;2022-08-19T07:18:42;94347.69;;;20.79;100.00
23363;BME280;11853;48.080;11.960;2022-08-19T07:21:15;94341.19;;;20.86;100.00
23363;BME280;11853;48.080;11.960;2022-08-19T07:23:42;94339.06;;;20.88;100.00
23363;BME280;11853;48.080;11.960;2022-08-19T07:26:17;94334.03;;;20.92;100.00
23363;BME280;11853;48.080;11.960;2022-08-19T07:28:46;94342.50;;;20.96;100.00
23363;BME280;11853;48.080;11.960;2022-08-19T07:31:14;94344.38;;;20.95;100.00
23363;BME280;11853;48.080;11.960;2022-08-19T07:33:42;94351.75;;;21.00;100.00
23363;BME280;11853;48.080;11.960;2022-08-19T07:36:10;94352.16;;;21.03;100.00
23363;BME280;11853;48.080;11.960;2022-08-19T07:38:40;94355.19;;;21.07;100.00
23363;BME280;11853;48.080;11.960;2022-08-19T07:41:10;94359.53;;;21.08;100.00
23363;BME280;11853;48.080;11.960;2022-08-19T07:43:40;94361.19;;;21.09;100.00
23363;BME280;11853;48.080;11.960;2022-08-19T07:46:11;94359.31;;;21.09;100.00
23363;BME280;11853;48.080;11.960;2022-08-19T07:48:40;94373.16;;;21.13;100.00
23363;BME280;11853;48.080;11.960;2022-08-19T07:51:18;94368.81;;;21.12;100.00
23363;BME280;11853;48.080;11.960;2022-08-19T07:53:46;94363.19;;;21.13;100.00
23363;BME280;11853;48.080;11.960;2022-08-19T07:56:23;94366.69;;;21.14;100.00
23363;BME280;11853;48.080;11.960;2022-08-19T07:58:50;94362.72;;;21.17;100.00
23363;BME280;11853;48.080;11.960;2022-08-19T08:01:21;94362.50;;;21.18;100.00
23363;BME280;11853;48.080;11.960;2022-08-19T08:03:50;94360.97;;;21.22;100.00
23363;BME280;11853;48.080;11.960;2022-08-19T08:06:39;94374.00;;;21.25;100.00
23363;BME280;11853;48.080;11.960;2022-08-19T08:09:27;94374.47;;;21.22;100.00
23363;BME280;11853;48.080;11.960;2022-08-19T08:12:00;94380.47;;;21.24;100.00
23363;BME280;11853;48.080;11.960;2022-08-19T08:14:35;94379.25;;;21.20;100.00
23363;BME280;11853;48.080;11.960;2022-08-19T08:17:03;94377.38;;;21.09;100.00
23363;BME280;11853;48.080;11.960;2022-08-19T08:19:29;94383.94;;;21.13;100.00
23363;BME280;11853;48.080;11.960;2022-08-19T08:22:00;94391.44;;;21.11;100.00
23363;BME280;11853;48.080;11.960;2022-08-19T08:24:27;94389.44;;;21.06;100.00
23363;BME280;11853;48.080;11.960;2022-08-19T08:26:54;94389.44;;;21.06;100.00
23363;BME280;11853;48.080;11.960;2022-08-19T08:29:19;94397.75;;;21.05;100.00
23363;BME280;11853;48.080;11.960;2022-08-19T08:31:47;94398.22;;;21.02;100.00
23363;BME280;11853;48.080;11.960;2022-08-19T08:34:14;94398.06;;;20.97;100.00
23363;BME280;11853;48.080;11.960;2022-08-19T08:36:44;94406.63;;;20.93;100.00
23363;BME280;11853;48.080;11.960;2022-08-19T08:39:20;94401.69;;;20.90;100.00
23363;BME280;11853;48.080;11.960;2022-08-19T08:47:16;94406.50;;;20.70;100.00
23363;BME280;11853;48.080;11.960;2022-08-19T08:49:52;94403.22;;;20.68;100.00
23363;BME280;11853;48.080;11.960;2022-08-19T08:54:54;94407.41;;;20.64;100.00
23363;BME280;11853;48.080;11.960;2022-08-19T08:59:54;94422.53;;;20.65;100.00
23363;BME280;11853;48.080;11.960;2022-08-19T09:02:21;94430.75;;;20.52;100.00
23363;BME280;11853;48.080;11.960;2022-08-19T09:04:47;94422.53;;;20.46;100.00
23363;BME280;11853;48.080;11.960;2022-08-19T09:07:39;94418.31;;;20.51;100.00
23363;BME280;11853;48.080;11.960;2022-08-19T09:13:05;94411.91;;;20.70;100.00
23363;BME280;11853;48.080;11.960;2022-08-19T09:15:39;94404.69;;;20.82;100.00
23363;BME280;11853;48.080;11.960;2022-08-19T09:18:08;94409.94;;;20.96;100.00
23363;BME280;11853;48.080;11.960;2022-08-19T09:20:34;94398.97;;;21.09;100.00
23363;BME280;11853;48.080;11.960;2022-08-19T09:23:02;94406.25;;;21.20;100.00
23363;BME280;11853;48.080;11.960;2022-08-19T09:25:28;94412.38;;;21.27;100.00
23363;BME280;11853;48.080;11.960;2022-08-19T09:27:56;94424.00;;;21.28;100.00
23363;BME280;11853;48.080;11.960;2022-08-19T09:30:25;94439.38;;;21.27;100.00
23363;BME280;11853;48.080;11.960;2022-08-19T09:32:51;94422.00;;;21.23;100.00
23363;BME280;11853;48.080;11.960;2022-08-19T09:35:25;94425.63;;;21.29;100.00
23363;BME280;11853;48.080;11.960;2022-08-19T09:37:53;94419.41;;;21.28;100.00
23363;BME280;11853;48.080;11.960;2022-08-19T09:40:23;94424.13;;;21.33;100.00
23363;BME280;11853;48.080;11.960;2022-08-19T09:42:59;94418.22;;;21.43;100.00
23363;BME280;11853;48.080;11.960;2022-08-19T09:45:28;94409.56;;;21.52;100.00
23363;BME280;11853;48.080;11.960;2022-08-19T09:47:54;94409.25;;;21.72;100.00
23363;BME280;11853;48.080;11.960;2022-08-19T09:50:22;94405.16;;;21.93;100.00
23363;BME280;11853;48.080;11.960;2022-08-19T09:52:49;94399.88;;;22.10;100.00
23363;BME280;11853;48.080;11.960;2022-08-19T09:55:14;94411.97;;;22.31;100.00
23363;BME280;11853;48.080;11.960;2022-08-19T09:57:41;94413.72;;;22.49;100.00
23363;BME280;11853;48.080;11.960;2022-08-19T10:00:08;94412.78;;;22.55;100.00
23363;BME280;11853;48.080;11.960;2022-08-19T10:02:36;94424.53;;;22.49;100.00
23363;BME280;11853;48.080;11.960;2022-08-19T10:05:02;94429.25;;;22.42;100.00
23363;BME280;11853;48.080;11.960;2022-08-19T10:07:46;94430.34;;;22.29;100.00
23363;BME280;11853;48.080;11.960;2022-08-19T10:10:13;94417.41;;;22.19;100.00
23363;BME280;11853;48.080;11.960;2022-08-19T10:12:38;94420.75;;;22.15;100.00
23363;BME280;11853;48.080;11.960;2022-08-19T10:15:06;94415.34;;;22.15;100.00
23363;BME280;11853;48.080;11.960;2022-08-19T10:17:33;94416.81;;;22.17;100.00
23363;BME280;11853;48.080;11.960;2022-08-19T10:20:00;94409.53;;;22.18;100.00
23363;BME280;11853;48.080;11.960;2022-08-19T10:22:27;94403.88;;;22.19;100.00
23363;BME280;11853;48.080;11.960;2022-08-19T10:24:54;94400.13;;;22.20;100.00
23363;BME280;11853;48.080;11.960;2022-08-19T10:27:20;94400.50;;;22.24;100.00
23363;BME280;11853;48.080;11.960;2022-08-19T10:29:46;94401.91;;;22.26;100.00
23363;BME280;11853;48.080;11.960;2022-08-19T10:32:15;94398.25;;;22.33;100.00
23363;BME280;11853;48.080;11.960;2022-08-19T10:34:40;94402.69;;;22.39;100.00
23363;BME280;11853;48.080;11.960;2022-08-19T10:37:06;94413.03;;;22.42;100.00
23363;BME280;11853;48.080;11.960;2022-08-19T10:39:34;94414.09;;;22.41;100.00
23363;BME280;11853;48.080;11.960;2022-08-19T10:42:09;94403.28;;;22.41;100.00
23363;BME280;11853;48.080;11.960;2022-08-19T10:44:38;94409.19;;;22.38;100.00
23363;BME280;11853;48.080;11.960;2022-08-19T10:47:05;94403.19;;;22.36;100.00
23363;BME280;11853;48.080;11.960;2022-08-19T10:49:31;94397.78;;;22.36;100.00
23363;BME280;11853;48.080;11.960;2022-08-19T10:51:57;94394.81;;;22.37;100.00
23363;BME280;11853;48.080;11.960;2022-08-19T10:54:42;94392.47;;;22.41;100.00
23363;BME280;11853;48.080;11.960;2022-08-19T10:57:30;94388.00;;;22.46;100.00
23363;BME280;11853;48.080;11.960;2022-08-19T10:59:56;94379.16;;;22.51;100.00
23363;BME280;11853;48.080;11.960;2022-08-19T11:02:21;94372.78;;;22.57;100.00
23363;BME280;11853;48.080;11.960;2022-08-19T11:04:47;94369.59;;;22.60;100.00
23363;BME280;11853;48.080;11.960;2022-08-19T11:07:14;94377.84;;;22.65;100.00
23363;BME280;11853;48.080;11.960;2022-08-19T11:09:41;94373.00;;;22.67;100.00
23363;BME280;11853;48.080;11.960;2022-08-19T11:12:27;94374.66;;;22.68;100.00
23363;BME280;11853;48.080;11.960;2022-08-19T11:14:53;94374.41;;;22.70;100.00
23363;BME280;11853;48.080;11.960;2022-08-19T11:17:38;94377.47;;;22.74;100.00
23363;BME280;11853;48.080;11.960;2022-08-19T11:20:07;94378.06;;;22.76;100.00
23363;BME280;11853;48.080;11.960;2022-08-19T11:22:33;94370.97;;;22.75;100.00
23363;BME280;11853;48.080;11.960;2022-08-19T11:25:00;94370.16;;;22.74;100.00
23363;BME280;11853;48.080;11.960;2022-08-19T11:27:25;94365.56;;;22.75;100.00
23363;BME280;11853;48.080;11.960;2022-08-19T11:29:51;94363.44;;;22.77;99.89
23363;BME280;11853;48.080;11.960;2022-08-19T11:32:17;94366.50;;;22.80;98.69
23363;BME280;11853;48.080;11.960;2022-08-19T11:34:43;94365.19;;;22.83;99.23
23363;BME280;11853;48.080;11.960;2022-08-19T11:37:09;94360.47;;;22.90;100.00
23363;BME280;11853;48.080;11.960;2022-08-19T11:39:36;94370.81;;;22.93;100.00
23363;BME280;11853;48.080;11.960;2022-08-19T11:42:04;94370.56;;;22.94;100.00
23363;BME280;11853;48.080;11.960;2022-08-19T11:44:49;94369.53;;;22.96;100.00
23363;BME280;11853;48.080;11.960;2022-08-19T11:47:15;94362.69;;;22.93;100.00
23363;BME280;11853;48.080;11.960;2022-08-19T11:49:40;94360.97;;;22.87;100.00
23363;BME280;11853;48.080;11.960;2022-08-19T11:52:07;94367.41;;;22.86;100.00
23363;BME280;11853;48.080;11.960;2022-08-19T11:54:34;94364.63;;;22.81;100.00
23363;BME280;11853;48.080;11.960;2022-08-19T11:57:03;94361.94;;;22.81;99.96
23363;BME280;11853;48.080;11.960;2022-08-19T11:59:29;94367.78;;;22.78;99.22
23363;BME280;11853;48.080;11.960;2022-08-19T12:01:54;94364.03;;;22.79;99.01
23363;BME280;11853;48.080;11.960;2022-08-19T12:04:21;94367.34;;;22.81;99.32
23363;BME280;11853;48.080;11.960;2022-08-19T12:06:47;94371.19;;;22.85;99.30
23363;BME280;11853;48.080;11.960;2022-08-19T12:09:13;94365.28;;;22.88;99.49
23363;BME280;11853;48.080;11.960;2022-08-19T12:11:40;94357.66;;;22.85;99.72
23363;BME280;11853;48.080;11.960;2022-08-19T12:14:12;94363.41;;;22.88;99.45
23363;BME280;11853;48.080;11.960;2022-08-19T12:16:38;94370.97;;;22.86;98.88
23363;BME280;11853;48.080;11.960;2022-08-19T12:19:04;94377.19;;;22.87;98.97
23363;BME280;11853;48.080;11.960;2022-08-19T12:21:32;94370.72;;;22.88;98.63
23363;BME280;11853;48.080;11.960;2022-08-19T12:24:00;94375.03;;;22.89;99.29
23363;BME280;11853;48.080;11.960;2022-08-19T12:26:28;94375.91;;;22.89;99.33
23363;BME280;11853;48.080;11.960;2022-08-19T12:28:57;94379.97;;;22.92;98.48
23363;BME280;11853;48.080;11.960;2022-08-19T12:31:25;94379.97;;;22.92;98.39
23363;BME280;11853;48.080;11.960;2022-08-19T12:33:51;94384.22;;;22.88;97.27
23363;BME280;11853;48.080;11.960;2022-08-19T12:36:17;94389.31;;;22.84;97.49
23363;BME280;11853;48.080;11.960;2022-08-19T12:38:43;94384.38;;;22.81;96.82
23363;BME280;11853;48.080;11.960;2022-08-19T12:41:12;94385.34;;;22.75;96.34
23363;BME280;11853;48.080;11.960;2022-08-19T12:43:39;94386.88;;;22.71;96.42
23363;BME280;11853;48.080;11.960;2022-08-19T12:46:05;94387.13;;;22.69;95.87
23363;BME280;11853;48.080;11.960;2022-08-19T12:48:32;94392.53;;;22.69;96.05
23363;BME280;11853;48.080;11.960;2022-08-19T12:50:58;94394.16;;;22.70;96.37
23363;BME280;11853;48.080;11.960;2022-08-19T12:53:25;94394.50;;;22.74;97.56
23363;BME280;11853;48.080;11.960;2022-08-19T12:55:59;94399.09;;;22.74;99.65
23363;BME280;11853;48.080;11.960;2022-08-19T12:58:25;94405.81;;;22.71;98.39
23363;BME280;11853;48.080;11.960;2022-08-19T13:00:51;94411.81;;;22.73;97.32
23363;BME280;11853;48.080;11.960;2022-08-19T13:03:20;94406.16;;;22.75;96.65
23363;BME280;11853;48.080;11.960;2022-08-19T13:05:47;94407.56;;;22.77;96.25